sensor_id;sensor_type;location;lat;lon;timestamp;temperature;humidity
17998;DHT22;9124;48.144;17.098;2024-01-16T00:02:07;0.60;95.50
17998;DHT22;9124;48.144;17.098;2024-01-16T00:06:41;0.60;95.50
17998;DHT22;9124;48.144;17.098;2024-01-16T00:11:08;0.60;95.70
17998;DHT22;9124;48.144;17.098;2024-01-16T00:15:34;0.50;95.60
17998;DHT22;9124;48.144;17.098;2024-01-16T00:20:01;0.50;95.60
17998;DHT22;9124;48.144;17.098;2024-01-16T00:24:30;0.40;95.70
17998;DHT22;9124;48.144;17.098;2024-01-16T00:28:57;0.40;95.90
17998;DHT22;9124;48.144;17.098;2024-01-16T00:33:23;0.50;95.80
17998;DHT22;9124;48.144;17.098;2024-01-16T00:37:51;0.50;95.90
17998;DHT22;9124;48.144;17.098;2024-01-16T00:42:18;0.60;95.80
17998;DHT22;9124;48.144;17.098;2024-01-16T00:46:45;0.60;95.60
17998;DHT22;9124;48.144;17.098;2024-01-16T00:51:11;0.60;95.50
17998;DHT22;9124;48.144;17.098;2024-01-16T00:55:37;0.60;95.20
17998;DHT22;9124;48.144;17.098;2024-01-16T01:00:05;0.60;95.20
17998;DHT22;9124;48.144;17.098;2024-01-16T01:04:33;0.60;95.10
17998;DHT22;9124;48.144;17.098;2024-01-16T01:08:59;0.60;95.20
17998;DHT22;9124;48.144;17.098;2024-01-16T01:13:28;0.60;95.00
17998;DHT22;9124;48.144;17.098;2024-01-16T01:17:54;0.70;95.10
17998;DHT22;9124;48.144;17.098;2024-01-16T01:22:22;0.70;94.90
17998;DHT22;9124;48.144;17.098;2024-01-16T01:26:48;0.60;94.60
17998;DHT22;9124;48.144;17.098;2024-01-16T01:31:15;0.50;94.70
17998;DHT22;9124;48.144;17.098;2024-01-16T01:35:41;0.40;94.70
17998;DHT22;9124;48.144;17.098;2024-01-16T01:40:08;0.30;94.70
17998;DHT22;9124;48.144;17.098;2024-01-16T01:44:35;0.20;94.80
17998;DHT22;9124;48.144;17.098;2024-01-16T01:49:02;0.20;95.10
17998;DHT22;9124;48.144;17.098;2024-01-16T01:53:30;0.20;95.10
17998;DHT22;9124;48.144;17.098;2024-01-16T01:57:57;0.10;95.10
17998;DHT22;9124;48.144;17.098;2024-01-16T02:02:24;0.10;95.10
17998;DHT22;9124;48.144;17.098;2024-01-16T02:06:51;0.10;95.20
17998;DHT22;9124;48.144;17.098;2024-01-16T02:11:17;0.00;95.20
17998;DHT22;9124;48.144;17.098;2024-01-16T02:15:44;0.00;95.20
17998;DHT22;9124;48.144;17.098;2024-01-16T02:20:10;-0.10;95.20
17998;DHT22;9124;48.144;17.098;2024-01-16T02:24:40;-0.10;95.40
17998;DHT22;9124;48.144;17.098;2024-01-16T02:29:07;0.00;95.50
17998;DHT22;9124;48.144;17.098;2024-01-16T02:33:33;0.00;95.40
17998;DHT22;9124;48.144;17.098;2024-01-16T02:37:59;0.00;95.40
17998;DHT22;9124;48.144;17.098;2024-01-16T02:42:26;-0.10;95.30
17998;DHT22;9124;48.144;17.098;2024-01-16T02:46:53;0.00;95.60
17998;DHT22;9124;48.144;17.098;2024-01-16T02:51:19;0.00;95.70
17998;DHT22;9124;48.144;17.098;2024-01-16T02:55:51;0.00;95.50
17998;DHT22;9124;48.144;17.098;2024-01-16T03:00:18;0.00;95.50
17998;DHT22;9124;48.144;17.098;2024-01-16T03:04:51;0.00;95.60
17998;DHT22;9124;48.144;17.098;2024-01-16T03:09:17;0.00;95.70
17998;DHT22;9124;48.144;17.098;2024-01-16T03:13:45;0.00;95.60
17998;DHT22;9124;48.144;17.098;2024-01-16T03:18:11;0.10;95.60
17998;DHT22;9124;48.144;17.098;2024-01-16T03:22:38;0.00;95.40
17998;DHT22;9124;48.144;17.098;2024-01-16T03:27:04;0.00;95.50
17998;DHT22;9124;48.144;17.098;2024-01-16T03:31:31;0.00;95.50
17998;DHT22;9124;48.144;17.098;2024-01-16T03:35:57;0.00;95.40
17998;DHT22;9124;48.144;17.098;2024-01-16T03:40:24;0.10;95.10
17998;DHT22;9124;48.144;17.098;2024-01-16T03:44:50;0.10;95.00
17998;DHT22;9124;48.144;17.098;2024-01-16T03:49:18;0.10;94.80
17998;DHT22;9124;48.144;17.098;2024-01-16T03:53:45;0.10;94.50
17998;DHT22;9124;48.144;17.098;2024-01-16T03:58:12;0.00;94.30
17998;DHT22;9124;48.144;17.098;2024-01-16T04:02:38;-0.10;94.00
17998;DHT22;9124;48.144;17.098;2024-01-16T04:07:05;-0.10;94.30
17998;DHT22;9124;48.144;17.098;2024-01-16T04:11:31;-0.10;94.30
17998;DHT22;9124;48.144;17.098;2024-01-16T04:15:58;-0.20;94.10
17998;DHT22;9124;48.144;17.098;2024-01-16T04:20:24;-0.30;94.00
17998;DHT22;9124;48.144;17.098;2024-01-16T04:24:53;-0.40;94.00
17998;DHT22;9124;48.144;17.098;2024-01-16T04:29:22;-0.40;94.20
17998;DHT22;9124;48.144;17.098;2024-01-16T04:33:49;-0.30;94.20
17998;DHT22;9124;48.144;17.098;2024-01-16T04:38:16;-0.30;94.10
17998;DHT22;9124;48.144;17.098;2024-01-16T04:42:43;-0.20;94.00
17998;DHT22;9124;48.144;17.098;2024-01-16T04:47:10;-0.20;93.90
17998;DHT22;9124;48.144;17.098;2024-01-16T04:51:37;-0.20;93.80
17998;DHT22;9124;48.144;17.098;2024-01-16T04:56:04;-0.10;93.70
17998;DHT22;9124;48.144;17.098;2024-01-16T05:00:31;-0.10;93.60
17998;DHT22;9124;48.144;17.098;2024-01-16T05:04:57;0.00;93.40
17998;DHT22;9124;48.144;17.098;2024-01-16T05:09:24;0.00;93.30
17998;DHT22;9124;48.144;17.098;2024-01-16T05:13:51;0.10;93.10
17998;DHT22;9124;48.144;17.098;2024-01-16T05:18:23;0.10;92.70
17998;DHT22;9124;48.144;17.098;2024-01-16T05:22:50;0.10;92.60
17998;DHT22;9124;48.144;17.098;2024-01-16T05:27:16;0.00;92.40
17998;DHT22;9124;48.144;17.098;2024-01-16T05:31:45;0.00;92.10
17998;DHT22;9124;48.144;17.098;2024-01-16T05:36:12;0.00;92.00
17998;DHT22;9124;48.144;17.098;2024-01-16T05:40:38;0.00;92.00
17998;DHT22;9124;48.144;17.098;2024-01-16T05:45:06;0.00;91.80
17998;DHT22;9124;48.144;17.098;2024-01-16T05:49:34;-0.10;91.60
17998;DHT22;9124;48.144;17.098;2024-01-16T05:54:01;-0.10;91.50
17998;DHT22;9124;48.144;17.098;2024-01-16T05:58:30;-0.10;91.60
17998;DHT22;9124;48.144;17.098;2024-01-16T06:03:01;-0.10;91.40
17998;DHT22;9124;48.144;17.098;2024-01-16T06:07:29;-0.10;91.30
17998;DHT22;9124;48.144;17.098;2024-01-16T06:11:55;-0.10;91.20
17998;DHT22;9124;48.144;17.098;2024-01-16T06:16:22;-0.10;91.00
17998;DHT22;9124;48.144;17.098;2024-01-16T06:20:48;-0.10;91.00
17998;DHT22;9124;48.144;17.098;2024-01-16T06:25:15;-0.10;90.90
17998;DHT22;9124;48.144;17.098;2024-01-16T06:29:42;-0.10;90.70
17998;DHT22;9124;48.144;17.098;2024-01-16T06:34:08;-0.10;90.80
17998;DHT22;9124;48.144;17.098;2024-01-16T06:38:34;0.10;90.70
17998;DHT22;9124;48.144;17.098;2024-01-16T06:43:01;0.10;90.40
17998;DHT22;9124;48.144;17.098;2024-01-16T06:47:30;0.10;90.10
17998;DHT22;9124;48.144;17.098;2024-01-16T06:51:56;0.10;89.90
17998;DHT22;9124;48.144;17.098;2024-01-16T06:56:25;0.20;89.60
17998;DHT22;9124;48.144;17.098;2024-01-16T07:00:51;0.20;89.20
17998;DHT22;9124;48.144;17.098;2024-01-16T07:05:18;0.20;88.90
17998;DHT22;9124;48.144;17.098;2024-01-16T07:09:45;0.20;88.70
17998;DHT22;9124;48.144;17.098;2024-01-16T07:14:14;0.30;88.40
17998;DHT22;9124;48.144;17.098;2024-01-16T07:18:40;0.30;88.00
17998;DHT22;9124;48.144;17.098;2024-01-16T07:23:08;0.30;87.60
17998;DHT22;9124;48.144;17.098;2024-01-16T07:27:34;0.40;87.30
17998;DHT22;9124;48.144;17.098;2024-01-16T07:32:01;0.40;87.30
17998;DHT22;9124;48.144;17.098;2024-01-16T07:36:52;0.40;87.10
17998;DHT22;9124;48.144;17.098;2024-01-16T07:41:20;0.50;86.60
17998;DHT22;9124;48.144;17.098;2024-01-16T07:45:46;0.60;86.40
17998;DHT22;9124;48.144;17.098;2024-01-16T07:50:12;0.60;86.00
17998;DHT22;9124;48.144;17.098;2024-01-16T07:54:40;0.70;85.70
17998;DHT22;9124;48.144;17.098;2024-01-16T07:59:06;0.70;85.50
17998;DHT22;9124;48.144;17.098;2024-01-16T08:03:33;0.80;85.20
17998;DHT22;9124;48.144;17.098;2024-01-16T08:07:59;0.90;84.70
17998;DHT22;9124;48.144;17.098;2024-01-16T08:12:26;0.90;84.40
17998;DHT22;9124;48.144;17.098;2024-01-16T08:16:52;1.00;84.20
17998;DHT22;9124;48.144;17.098;2024-01-16T08:21:18;1.10;83.90
17998;DHT22;9124;48.144;17.098;2024-01-16T08:25:46;1.20;83.60
17998;DHT22;9124;48.144;17.098;2024-01-16T08:30:12;1.30;83.20
17998;DHT22;9124;48.144;17.098;2024-01-16T08:34:41;1.30;82.90
17998;DHT22;9124;48.144;17.098;2024-01-16T08:39:08;1.40;82.50
17998;DHT22;9124;48.144;17.098;2024-01-16T08:43:34;1.50;82.20
17998;DHT22;9124;48.144;17.098;2024-01-16T08:48:01;1.60;81.60
17998;DHT22;9124;48.144;17.098;2024-01-16T08:52:27;1.70;81.30
17998;DHT22;9124;48.144;17.098;2024-01-16T08:56:53;1.80;80.50
17998;DHT22;9124;48.144;17.098;2024-01-16T09:01:21;2.00;80.20
17998;DHT22;9124;48.144;17.098;2024-01-16T09:05:47;2.40;80.10
17998;DHT22;9124;48.144;17.098;2024-01-16T09:10:14;2.70;79.80
17998;DHT22;9124;48.144;17.098;2024-01-16T09:14:41;3.40;80.20
17998;DHT22;9124;48.144;17.098;2024-01-16T09:19:07;7.20;82.00
17998;DHT22;9124;48.144;17.098;2024-01-16T09:23:35;13.40;77.50
17998;DHT22;9124;48.144;17.098;2024-01-16T09:28:03;18.30;64.70
17998;DHT22;9124;48.144;17.098;2024-01-16T09:32:29;19.20;59.10
17998;DHT22;9124;48.144;17.098;2024-01-16T09:36:57;20.40;55.80
17998;DHT22;9124;48.144;17.098;2024-01-16T09:41:26;21.20;52.10
17998;DHT22;9124;48.144;17.098;2024-01-16T09:45:55;21.70;49.50
17998;DHT22;9124;48.144;17.098;2024-01-16T09:50:22;21.80;47.30
17998;DHT22;9124;48.144;17.098;2024-01-16T09:54:49;22.10;45.90
17998;DHT22;9124;48.144;17.098;2024-01-16T09:59:17;22.30;43.70
17998;DHT22;9124;48.144;17.098;2024-01-16T10:03:45;22.50;42.70
17998;DHT22;9124;48.144;17.098;2024-01-16T10:08:11;22.50;41.50
17998;DHT22;9124;48.144;17.098;2024-01-16T10:12:39;22.70;41.00
17998;DHT22;9124;48.144;17.098;2024-01-16T10:17:05;22.70;39.50
17998;DHT22;9124;48.144;17.098;2024-01-16T10:21:38;21.10;37.30
17998;DHT22;9124;48.144;17.098;2024-01-16T10:26:08;16.10;37.30
17998;DHT22;9124;48.144;17.098;2024-01-16T10:30:35;13.50;39.30
17998;DHT22;9124;48.144;17.098;2024-01-16T10:35:06;12.10;39.40
17998;DHT22;9124;48.144;17.098;2024-01-16T10:39:38;10.60;39.70
17998;DHT22;9124;48.144;17.098;2024-01-16T10:44:06;10.00;40.30
17998;DHT22;9124;48.144;17.098;2024-01-16T10:48:36;9.60;40.60
17998;DHT22;9124;48.144;17.098;2024-01-16T10:53:25;9.30;41.50
17998;DHT22;9124;48.144;17.098;2024-01-16T10:57:52;10.90;43.00
17998;DHT22;9124;48.144;17.098;2024-01-16T11:02:20;13.60;43.00
17998;DHT22;9124;48.144;17.098;2024-01-16T11:06:54;15.00;40.90
17998;DHT22;9124;48.144;17.098;2024-01-16T11:11:22;15.40;39.60
17998;DHT22;9124;48.144;17.098;2024-01-16T11:15:50;13.60;37.90
17998;DHT22;9124;48.144;17.098;2024-01-16T11:20:16;11.00;37.50
17998;DHT22;9124;48.144;17.098;2024-01-16T11:24:44;9.20;38.30
17998;DHT22;9124;48.144;17.098;2024-01-16T11:33:53;7.40;40.00
17998;DHT22;9124;48.144;17.098;2024-01-16T11:38:20;7.10;40.60
17998;DHT22;9124;48.144;17.098;2024-01-16T11:42:49;7.00;41.10
17998;DHT22;9124;48.144;17.098;2024-01-16T11:47:21;6.90;41.40
17998;DHT22;9124;48.144;17.098;2024-01-16T11:51:47;6.90;41.80
17998;DHT22;9124;48.144;17.098;2024-01-16T12:00:48;7.10;42.50
17998;DHT22;9124;48.144;17.098;2024-01-16T12:05:17;7.00;42.50
17998;DHT22;9124;48.144;17.098;2024-01-16T12:09:44;6.80;42.50
17998;DHT22;9124;48.144;17.098;2024-01-16T12:14:12;6.80;42.90
17998;DHT22;9124;48.144;17.098;2024-01-16T12:18:38;6.90;43.30
17998;DHT22;9124;48.144;17.098;2024-01-16T12:23:08;7.00;43.50
17998;DHT22;9124;48.144;17.098;2024-01-16T12:27:35;6.90;43.60
17998;DHT22;9124;48.144;17.098;2024-01-16T12:32:07;6.70;43.60
17998;DHT22;9124;48.144;17.098;2024-01-16T12:36:34;6.60;43.90
17998;DHT22;9124;48.144;17.098;2024-01-16T12:41:01;6.60;44.20
17998;DHT22;9124;48.144;17.098;2024-01-16T12:45:28;6.30;44.20
17998;DHT22;9124;48.144;17.098;2024-01-16T12:49:54;6.10;44.30
17998;DHT22;9124;48.144;17.098;2024-01-16T12:54:22;5.90;44.50
17998;DHT22;9124;48.144;17.098;2024-01-16T12:58:50;5.90;44.90
17998;DHT22;9124;48.144;17.098;2024-01-16T13:03:22;5.80;44.60
17998;DHT22;9124;48.144;17.098;2024-01-16T13:08:02;5.70;45.10
17998;DHT22;9124;48.144;17.098;2024-01-16T13:12:30;5.60;45.30
17998;DHT22;9124;48.144;17.098;2024-01-16T13:16:59;5.60;45.40
17998;DHT22;9124;48.144;17.098;2024-01-16T13:21:28;5.50;45.50
17998;DHT22;9124;48.144;17.098;2024-01-16T13:25:55;5.40;45.60
17998;DHT22;9124;48.144;17.098;2024-01-16T13:30:23;5.30;45.80
17998;DHT22;9124;48.144;17.098;2024-01-16T13:34:51;5.30;46.00
17998;DHT22;9124;48.144;17.098;2024-01-16T13:39:17;5.30;46.20
17998;DHT22;9124;48.144;17.098;2024-01-16T13:43:44;5.50;46.40
17998;DHT22;9124;48.144;17.098;2024-01-16T13:48:10;5.50;46.40
17998;DHT22;9124;48.144;17.098;2024-01-16T13:52:37;5.40;46.40
17998;DHT22;9124;48.144;17.098;2024-01-16T13:57:06;5.20;46.50
17998;DHT22;9124;48.144;17.098;2024-01-16T14:01:33;5.10;46.80
17998;DHT22;9124;48.144;17.098;2024-01-16T14:05:59;4.90;46.90
17998;DHT22;9124;48.144;17.098;2024-01-16T14:10:26;4.80;47.00
17998;DHT22;9124;48.144;17.098;2024-01-16T14:14:52;4.60;47.20
17998;DHT22;9124;48.144;17.098;2024-01-16T14:19:20;4.50;47.40
17998;DHT22;9124;48.144;17.098;2024-01-16T14:23:46;4.40;47.70
17998;DHT22;9124;48.144;17.098;2024-01-16T14:28:13;4.30;47.80
17998;DHT22;9124;48.144;17.098;2024-01-16T14:32:43;4.20;48.00
17998;DHT22;9124;48.144;17.098;2024-01-16T14:37:12;4.20;48.20
17998;DHT22;9124;48.144;17.098;2024-01-16T14:41:40;4.10;48.30
17998;DHT22;9124;48.144;17.098;2024-01-16T14:46:07;3.90;48.40
17998;DHT22;9124;48.144;17.098;2024-01-16T14:50:36;3.80;48.60
17998;DHT22;9124;48.144;17.098;2024-01-16T14:55:03;3.70;48.70
17998;DHT22;9124;48.144;17.098;2024-01-16T14:59:29;3.50;48.80
17998;DHT22;9124;48.144;17.098;2024-01-16T15:03:58;3.30;48.90
17998;DHT22;9124;48.144;17.098;2024-01-16T15:08:25;3.10;49.10
17998;DHT22;9124;48.144;17.098;2024-01-16T15:12:54;3.00;49.30
17998;DHT22;9124;48.144;17.098;2024-01-16T15:17:21;2.90;49.60
17998;DHT22;9124;48.144;17.098;2024-01-16T15:21:48;2.80;49.70
17998;DHT22;9124;48.144;17.098;2024-01-16T15:26:15;2.80;49.80
17998;DHT22;9124;48.144;17.098;2024-01-16T15:30:46;2.70;49.90
17998;DHT22;9124;48.144;17.098;2024-01-16T15:35:15;2.70;50.00
17998;DHT22;9124;48.144;17.098;2024-01-16T15:39:41;2.60;50.10
17998;DHT22;9124;48.144;17.098;2024-01-16T15:44:07;2.50;50.10
17998;DHT22;9124;48.144;17.098;2024-01-16T15:48:37;2.40;50.30
17998;DHT22;9124;48.144;17.098;2024-01-16T15:53:03;2.20;50.40
17998;DHT22;9124;48.144;17.098;2024-01-16T15:57:31;2.00;50.60
17998;DHT22;9124;48.144;17.098;2024-01-16T16:02:01;1.90;50.80
17998;DHT22;9124;48.144;17.098;2024-01-16T16:06:27;1.90;51.00
17998;DHT22;9124;48.144;17.098;2024-01-16T16:10:57;1.90;51.20
17998;DHT22;9124;48.144;17.098;2024-01-16T16:15:24;2.00;51.40
17998;DHT22;9124;48.144;17.098;2024-01-16T16:19:51;2.00;51.40
17998;DHT22;9124;48.144;17.098;2024-01-16T16:24:18;2.00;51.50
17998;DHT22;9124;48.144;17.098;2024-01-16T16:28:45;2.00;51.60
17998;DHT22;9124;48.144;17.098;2024-01-16T16:33:11;2.10;51.80
17998;DHT22;9124;48.144;17.098;2024-01-16T16:37:37;2.10;51.90
17998;DHT22;9124;48.144;17.098;2024-01-16T16:42:04;2.00;52.10
17998;DHT22;9124;48.144;17.098;2024-01-16T16:46:31;2.00;52.10
17998;DHT22;9124;48.144;17.098;2024-01-16T16:50:57;2.00;52.30
17998;DHT22;9124;48.144;17.098;2024-01-16T16:55:25;1.90;52.40
17998;DHT22;9124;48.144;17.098;2024-01-16T16:59:53;1.80;52.70
17998;DHT22;9124;48.144;17.098;2024-01-16T17:04:21;1.70;52.80
17998;DHT22;9124;48.144;17.098;2024-01-16T17:08:47;1.60;53.00
17998;DHT22;9124;48.144;17.098;2024-01-16T17:13:14;1.50;53.10
17998;DHT22;9124;48.144;17.098;2024-01-16T17:17:41;1.30;53.30
17998;DHT22;9124;48.144;17.098;2024-01-16T17:22:09;1.20;53.40
17998;DHT22;9124;48.144;17.098;2024-01-16T17:26:35;1.00;53.60
17998;DHT22;9124;48.144;17.098;2024-01-16T17:31:03;0.90;53.70
17998;DHT22;9124;48.144;17.098;2024-01-16T17:35:30;0.70;53.70
17998;DHT22;9124;48.144;17.098;2024-01-16T17:39:56;0.70;53.90
17998;DHT22;9124;48.144;17.098;2024-01-16T17:44:23;0.70;54.00
17998;DHT22;9124;48.144;17.098;2024-01-16T17:48:49;0.60;54.10
17998;DHT22;9124;48.144;17.098;2024-01-16T17:53:17;0.60;54.10
17998;DHT22;9124;48.144;17.098;2024-01-16T17:57:43;0.50;54.20
17998;DHT22;9124;48.144;17.098;2024-01-16T18:02:10;0.40;54.30
17998;DHT22;9124;48.144;17.098;2024-01-16T18:06:36;0.30;54.30
17998;DHT22;9124;48.144;17.098;2024-01-16T18:11:03;0.20;54.50
17998;DHT22;9124;48.144;17.098;2024-01-16T18:15:30;0.10;54.60
17998;DHT22;9124;48.144;17.098;2024-01-16T18:19:58;-0.10;54.70
17998;DHT22;9124;48.144;17.098;2024-01-16T18:24:25;-0.20;54.80
17998;DHT22;9124;48.144;17.098;2024-01-16T18:28:52;-0.30;54.90
17998;DHT22;9124;48.144;17.098;2024-01-16T18:33:20;-0.40;55.00
17998;DHT22;9124;48.144;17.098;2024-01-16T18:37:47;-0.50;55.20
17998;DHT22;9124;48.144;17.098;2024-01-16T18:42:13;-0.50;55.30
17998;DHT22;9124;48.144;17.098;2024-01-16T18:46:39;-0.50;55.40
17998;DHT22;9124;48.144;17.098;2024-01-16T18:51:06;-0.60;55.50
17998;DHT22;9124;48.144;17.098;2024-01-16T18:55:32;-0.60;55.70
17998;DHT22;9124;48.144;17.098;2024-01-16T19:00:00;-0.70;55.70
17998;DHT22;9124;48.144;17.098;2024-01-16T19:04:27;-0.70;55.90
17998;DHT22;9124;48.144;17.098;2024-01-16T19:08:55;-0.70;56.00
17998;DHT22;9124;48.144;17.098;2024-01-16T19:13:22;-0.70;56.10
17998;DHT22;9124;48.144;17.098;2024-01-16T19:17:49;-0.60;56.20
17998;DHT22;9124;48.144;17.098;2024-01-16T19:22:25;-0.40;56.50
17998;DHT22;9124;48.144;17.098;2024-01-16T19:26:51;-0.30;56.50
17998;DHT22;9124;48.144;17.098;2024-01-16T19:31:17;-0.30;56.50
17998;DHT22;9124;48.144;17.098;2024-01-16T19:35:44;-0.20;56.60
17998;DHT22;9124;48.144;17.098;2024-01-16T19:40:10;0.00;57.50
17998;DHT22;9124;48.144;17.098;2024-01-16T19:44:38;0.20;57.40
17998;DHT22;9124;48.144;17.098;2024-01-16T19:49:05;0.20;57.40
17998;DHT22;9124;48.144;17.098;2024-01-16T19:53:35;0.20;57.50
17998;DHT22;9124;48.144;17.098;2024-01-16T19:58:03;0.20;57.70
17998;DHT22;9124;48.144;17.098;2024-01-16T20:02:32;0.20;57.90
17998;DHT22;9124;48.144;17.098;2024-01-16T20:06:58;0.10;58.00
17998;DHT22;9124;48.144;17.098;2024-01-16T20:11:30;0.10;58.30
17998;DHT22;9124;48.144;17.098;2024-01-16T20:15:57;0.10;58.70
17998;DHT22;9124;48.144;17.098;2024-01-16T20:20:25;0.10;59.40
17998;DHT22;9124;48.144;17.098;2024-01-16T20:24:52;0.10;59.30
17998;DHT22;9124;48.144;17.098;2024-01-16T20:29:20;0.00;59.50
17998;DHT22;9124;48.144;17.098;2024-01-16T20:33:46;-0.10;59.60
17998;DHT22;9124;48.144;17.098;2024-01-16T20:38:15;-0.20;59.70
17998;DHT22;9124;48.144;17.098;2024-01-16T20:42:42;-0.30;59.80
17998;DHT22;9124;48.144;17.098;2024-01-16T20:47:08;-0.40;60.50
17998;DHT22;9124;48.144;17.098;2024-01-16T20:51:36;-0.50;59.90
17998;DHT22;9124;48.144;17.098;2024-01-16T20:56:06;-0.60;60.10
17998;DHT22;9124;48.144;17.098;2024-01-16T21:00:32;-0.60;60.30
17998;DHT22;9124;48.144;17.098;2024-01-16T21:05:00;-0.70;60.30
17998;DHT22;9124;48.144;17.098;2024-01-16T21:09:27;-0.80;60.40
17998;DHT22;9124;48.144;17.098;2024-01-16T21:13:53;-0.80;60.90
17998;DHT22;9124;48.144;17.098;2024-01-16T21:18:20;-0.80;60.80
17998;DHT22;9124;48.144;17.098;2024-01-16T21:22:46;-0.90;60.80
17998;DHT22;9124;48.144;17.098;2024-01-16T21:27:14;-0.90;61.60
17998;DHT22;9124;48.144;17.098;2024-01-16T21:31:46;-1.00;61.10
17998;DHT22;9124;48.144;17.098;2024-01-16T21:36:14;-1.00;61.50
17998;DHT22;9124;48.144;17.098;2024-01-16T21:40:40;-1.00;61.40
17998;DHT22;9124;48.144;17.098;2024-01-16T21:45:07;-1.10;61.40
17998;DHT22;9124;48.144;17.098;2024-01-16T21:49:34;-1.20;61.50
17998;DHT22;9124;48.144;17.098;2024-01-16T21:54:01;-1.30;61.80
17998;DHT22;9124;48.144;17.098;2024-01-16T21:58:31;-1.30;62.10
17998;DHT22;9124;48.144;17.098;2024-01-16T22:02:57;-1.30;62.20
17998;DHT22;9124;48.144;17.098;2024-01-16T22:07:25;-1.40;62.30
17998;DHT22;9124;48.144;17.098;2024-01-16T22:11:51;-1.40;62.90
17998;DHT22;9124;48.144;17.098;2024-01-16T22:16:18;-1.40;62.80
17998;DHT22;9124;48.144;17.098;2024-01-16T22:20:44;-1.50;63.00
17998;DHT22;9124;48.144;17.098;2024-01-16T22:25:10;-1.50;63.30
17998;DHT22;9124;48.144;17.098;2024-01-16T22:30:04;-1.50;63.40
17998;DHT22;9124;48.144;17.098;2024-01-16T22:34:42;-1.60;63.70
17998;DHT22;9124;48.144;17.098;2024-01-16T22:45:27;-1.50;64.10
17998;DHT22;9124;48.144;17.098;2024-01-16T22:49:53;-1.50;64.70
17998;DHT22;9124;48.144;17.098;2024-01-16T22:54:19;-1.40;64.40
17998;DHT22;9124;48.144;17.098;2024-01-16T22:58:45;-1.50;64.60
17998;DHT22;9124;48.144;17.098;2024-01-16T23:03:12;-1.50;64.80
17998;DHT22;9124;48.144;17.098;2024-01-16T23:07:39;-1.50;65.10
17998;DHT22;9124;48.144;17.098;2024-01-16T23:12:07;-1.50;66.00
17998;DHT22;9124;48.144;17.098;2024-01-16T23:16:33;-1.60;65.40
17998;DHT22;9124;48.144;17.098;2024-01-16T23:21:02;-1.60;65.60
17998;DHT22;9124;48.144;17.098;2024-01-16T23:25:28;-1.70;65.70
17998;DHT22;9124;48.144;17.098;2024-01-16T23:29:57;-1.70;66.00
17998;DHT22;9124;48.144;17.098;2024-01-16T23:34:23;-1.70;66.20
17998;DHT22;9124;48.144;17.098;2024-01-16T23:38:50;-1.70;66.40
17998;DHT22;9124;48.144;17.098;2024-01-16T23:43:18;-1.80;66.50
17998;DHT22;9124;48.144;17.098;2024-01-16T23:47:49;-1.80;66.60
17998;DHT22;9124;48.144;17.098;2024-01-16T23:52:15;-1.90;66.80
17998;DHT22;9124;48.144;17.098;2024-01-16T23:56:42;-1.90;67.00
